sensor_id;sensor_type;location;lat;lon;timestamp;P1;durP1;ratioP1;P2;durP2;ratioP2
39982;SDS011;25670;44.782;10.356;2023-04-06T00:00:33;2.85;;;2.58;;
39982;SDS011;25670;44.782;10.356;2023-04-06T00:03:00;3.53;;;3.22;;
39982;SDS011;25670;44.782;10.356;2023-04-06T00:05:26;3.42;;;3.03;;
39982;SDS011;25670;44.782;10.356;2023-04-06T00:07:57;3.10;;;2.80;;
39982;SDS011;25670;44.782;10.356;2023-04-06T00:10:24;5.97;;;3.13;;
39982;SDS011;25670;44.782;10.356;2023-04-06T00:12:51;3.33;;;2.88;;
39982;SDS011;25670;44.782;10.356;2023-04-06T00:15:17;3.05;;;2.75;;
39982;SDS011;25670;44.782;10.356;2023-04-06T00:17:44;3.95;;;2.35;;
39982;SDS011;25670;44.782;10.356;2023-04-06T00:20:10;8.75;;;3.00;;
39982;SDS011;25670;44.782;10.356;2023-04-06T00:22:37;3.53;;;3.22;;
39982;SDS011;25670;44.782;10.356;2023-04-06T00:25:04;6.40;;;3.30;;
39982;SDS011;25670;44.782;10.356;2023-04-06T00:27:33;3.40;;;3.10;;
39982;SDS011;25670;44.782;10.356;2023-04-06T00:29:59;4.20;;;2.63;;
39982;SDS011;25670;44.782;10.356;2023-04-06T00:32:26;3.50;;;2.78;;
39982;SDS011;25670;44.782;10.356;2023-04-06T00:34:53;2.90;;;2.63;;
39982;SDS011;25670;44.782;10.356;2023-04-06T00:37:20;2.97;;;2.72;;
39982;SDS011;25670;44.782;10.356;2023-04-06T00:39:46;3.00;;;2.80;;
39982;SDS011;25670;44.782;10.356;2023-04-06T00:42:13;2.78;;;2.55;;
39982;SDS011;25670;44.782;10.356;2023-04-06T00:44:43;3.80;;;2.83;;
39982;SDS011;25670;44.782;10.356;2023-04-06T00:47:10;6.25;;;2.42;;
39982;SDS011;25670;44.782;10.356;2023-04-06T00:49:36;3.00;;;2.75;;
39982;SDS011;25670;44.782;10.356;2023-04-06T00:52:03;3.08;;;2.38;;
39982;SDS011;25670;44.782;10.356;2023-04-06T00:54:29;5.38;;;2.80;;
39982;SDS011;25670;44.782;10.356;2023-04-06T00:56:57;2.55;;;2.35;;
39982;SDS011;25670;44.782;10.356;2023-04-06T00:59:26;3.63;;;2.47;;
39982;SDS011;25670;44.782;10.356;2023-04-06T01:01:53;3.58;;;2.67;;
39982;SDS011;25670;44.782;10.356;2023-04-06T01:04:31;2.72;;;2.25;;
39982;SDS011;25670;44.782;10.356;2023-04-06T01:06:59;3.90;;;2.40;;
39982;SDS011;25670;44.782;10.356;2023-04-06T01:09:33;2.35;;;2.15;;
39982;SDS011;25670;44.782;10.356;2023-04-06T01:12:06;6.45;;;2.38;;
39982;SDS011;25670;44.782;10.356;2023-04-06T01:14:34;4.60;;;2.20;;
39982;SDS011;25670;44.782;10.356;2023-04-06T01:17:00;3.80;;;2.38;;
39982;SDS011;25670;44.782;10.356;2023-04-06T01:19:30;6.75;;;2.08;;
39982;SDS011;25670;44.782;10.356;2023-04-06T01:21:57;3.88;;;2.20;;
39982;SDS011;25670;44.782;10.356;2023-04-06T01:24:46;2.75;;;2.42;;
39982;SDS011;25670;44.782;10.356;2023-04-06T01:27:28;3.35;;;2.35;;
39982;SDS011;25670;44.782;10.356;2023-04-06T01:30:13;2.38;;;2.17;;
39982;SDS011;25670;44.782;10.356;2023-04-06T01:32:50;3.53;;;2.15;;
39982;SDS011;25670;44.782;10.356;2023-04-06T01:35:25;3.78;;;2.50;;
39982;SDS011;25670;44.782;10.356;2023-04-06T01:38:02;2.88;;;2.22;;
39982;SDS011;25670;44.782;10.356;2023-04-06T01:40:31;4.63;;;2.33;;
39982;SDS011;25670;44.782;10.356;2023-04-06T01:42:58;6.68;;;2.85;;
39982;SDS011;25670;44.782;10.356;2023-04-06T01:45:32;3.90;;;2.40;;
39982;SDS011;25670;44.782;10.356;2023-04-06T01:48:07;7.22;;;3.00;;
39982;SDS011;25670;44.782;10.356;2023-04-06T01:50:34;3.08;;;2.88;;
39982;SDS011;25670;44.782;10.356;2023-04-06T01:53:01;3.05;;;2.00;;
39982;SDS011;25670;44.782;10.356;2023-04-06T01:55:29;3.42;;;2.38;;
39982;SDS011;25670;44.782;10.356;2023-04-06T01:58:16;4.80;;;2.67;;
39982;SDS011;25670;44.782;10.356;2023-04-06T02:00:42;2.47;;;2.28;;
39982;SDS011;25670;44.782;10.356;2023-04-06T02:03:10;3.17;;;2.42;;
39982;SDS011;25670;44.782;10.356;2023-04-06T02:05:37;2.55;;;1.92;;
39982;SDS011;25670;44.782;10.356;2023-04-06T02:08:15;2.95;;;2.33;;
39982;SDS011;25670;44.782;10.356;2023-04-06T02:10:41;3.88;;;2.72;;
39982;SDS011;25670;44.782;10.356;2023-04-06T02:13:17;2.63;;;2.40;;
39982;SDS011;25670;44.782;10.356;2023-04-06T02:15:48;4.63;;;3.20;;
39982;SDS011;25670;44.782;10.356;2023-04-06T02:18:15;4.30;;;2.78;;
39982;SDS011;25670;44.782;10.356;2023-04-06T02:20:43;3.28;;;3.03;;
39982;SDS011;25670;44.782;10.356;2023-04-06T02:23:10;5.47;;;3.03;;
39982;SDS011;25670;44.782;10.356;2023-04-06T02:25:36;5.32;;;3.28;;
39982;SDS011;25670;44.782;10.356;2023-04-06T02:28:03;3.63;;;3.33;;
39982;SDS011;25670;44.782;10.356;2023-04-06T02:30:30;5.45;;;3.47;;
39982;SDS011;25670;44.782;10.356;2023-04-06T02:32:59;3.58;;;3.28;;
39982;SDS011;25670;44.782;10.356;2023-04-06T02:35:27;3.20;;;3.00;;
39982;SDS011;25670;44.782;10.356;2023-04-06T02:37:55;7.70;;;2.75;;
39982;SDS011;25670;44.782;10.356;2023-04-06T02:40:21;4.72;;;2.92;;
39982;SDS011;25670;44.782;10.356;2023-04-06T02:42:48;3.05;;;2.85;;
39982;SDS011;25670;44.782;10.356;2023-04-06T02:45:19;3.22;;;2.92;;
39982;SDS011;25670;44.782;10.356;2023-04-06T02:47:47;4.55;;;2.97;;
39982;SDS011;25670;44.782;10.356;2023-04-06T02:50:16;2.45;;;2.28;;
39982;SDS011;25670;44.782;10.356;2023-04-06T02:52:52;4.05;;;2.72;;
39982;SDS011;25670;44.782;10.356;2023-04-06T02:55:18;3.05;;;2.72;;
39982;SDS011;25670;44.782;10.356;2023-04-06T02:57:45;4.68;;;3.60;;
39982;SDS011;25670;44.782;10.356;2023-04-06T03:00:12;3.05;;;2.80;;
39982;SDS011;25670;44.782;10.356;2023-04-06T03:02:40;2.97;;;2.78;;
39982;SDS011;25670;44.782;10.356;2023-04-06T03:05:11;2.90;;;2.70;;
39982;SDS011;25670;44.782;10.356;2023-04-06T03:07:41;3.78;;;3.00;;
39982;SDS011;25670;44.782;10.356;2023-04-06T03:10:13;5.43;;;3.00;;
39982;SDS011;25670;44.782;10.356;2023-04-06T03:12:40;4.13;;;3.10;;
39982;SDS011;25670;44.782;10.356;2023-04-06T03:15:07;3.75;;;2.72;;
39982;SDS011;25670;44.782;10.356;2023-04-06T03:17:35;3.28;;;2.97;;
39982;SDS011;25670;44.782;10.356;2023-04-06T03:20:06;5.95;;;2.83;;
39982;SDS011;25670;44.782;10.356;2023-04-06T03:22:34;2.83;;;2.60;;
39982;SDS011;25670;44.782;10.356;2023-04-06T03:25:01;7.93;;;3.10;;
39982;SDS011;25670;44.782;10.356;2023-04-06T03:27:29;2.92;;;2.70;;
39982;SDS011;25670;44.782;10.356;2023-04-06T03:29:58;3.08;;;2.28;;
39982;SDS011;25670;44.782;10.356;2023-04-06T03:32:31;4.75;;;2.63;;
39982;SDS011;25670;44.782;10.356;2023-04-06T03:34:58;3.15;;;2.78;;
39982;SDS011;25670;44.782;10.356;2023-04-06T03:37:25;3.10;;;2.90;;
39982;SDS011;25670;44.782;10.356;2023-04-06T03:39:55;4.57;;;3.05;;
39982;SDS011;25670;44.782;10.356;2023-04-06T03:42:24;4.90;;;2.47;;
39982;SDS011;25670;44.782;10.356;2023-04-06T03:44:57;6.22;;;2.83;;
39982;SDS011;25670;44.782;10.356;2023-04-06T03:47:24;2.55;;;2.33;;
39982;SDS011;25670;44.782;10.356;2023-04-06T03:49:56;5.18;;;2.30;;
39982;SDS011;25670;44.782;10.356;2023-04-06T03:52:23;2.80;;;2.38;;
39982;SDS011;25670;44.782;10.356;2023-04-06T03:54:51;3.00;;;2.75;;
39982;SDS011;25670;44.782;10.356;2023-04-06T03:57:18;2.90;;;2.53;;
39982;SDS011;25670;44.782;10.356;2023-04-06T03:59:44;2.60;;;2.22;;
39982;SDS011;25670;44.782;10.356;2023-04-06T04:02:11;3.92;;;2.00;;
39982;SDS011;25670;44.782;10.356;2023-04-06T04:04:38;5.80;;;2.35;;
39982;SDS011;25670;44.782;10.356;2023-04-06T04:07:04;2.00;;;1.90;;
39982;SDS011;25670;44.782;10.356;2023-04-06T04:09:31;2.92;;;1.77;;
39982;SDS011;25670;44.782;10.356;2023-04-06T04:11:57;3.55;;;1.90;;
39982;SDS011;25670;44.782;10.356;2023-04-06T04:14:24;3.63;;;2.10;;
39982;SDS011;25670;44.782;10.356;2023-04-06T04:16:51;4.88;;;2.10;;
39982;SDS011;25670;44.782;10.356;2023-04-06T04:19:17;3.72;;;1.98;;
39982;SDS011;25670;44.782;10.356;2023-04-06T04:21:44;2.17;;;1.85;;
39982;SDS011;25670;44.782;10.356;2023-04-06T04:24:15;4.82;;;2.30;;
39982;SDS011;25670;44.782;10.356;2023-04-06T04:26:42;2.03;;;1.85;;
39982;SDS011;25670;44.782;10.356;2023-04-06T04:29:08;5.07;;;1.77;;
39982;SDS011;25670;44.782;10.356;2023-04-06T04:31:36;2.63;;;1.92;;
39982;SDS011;25670;44.782;10.356;2023-04-06T04:34:07;3.70;;;2.20;;
39982;SDS011;25670;44.782;10.356;2023-04-06T04:36:34;1.70;;;1.60;;
39982;SDS011;25670;44.782;10.356;2023-04-06T04:39:04;5.23;;;1.90;;
39982;SDS011;25670;44.782;10.356;2023-04-06T04:41:36;3.05;;;1.58;;
39982;SDS011;25670;44.782;10.356;2023-04-06T04:44:05;26.45;;;3.08;;
39982;SDS011;25670;44.782;10.356;2023-04-06T04:46:32;1.90;;;1.42;;
39982;SDS011;25670;44.782;10.356;2023-04-06T04:48:59;2.28;;;1.40;;
39982;SDS011;25670;44.782;10.356;2023-04-06T04:51:26;1.40;;;1.30;;
39982;SDS011;25670;44.782;10.356;2023-04-06T04:54:11;3.47;;;1.17;;
39982;SDS011;25670;44.782;10.356;2023-04-06T04:56:39;1.45;;;1.02;;
39982;SDS011;25670;44.782;10.356;2023-04-06T04:59:23;1.63;;;1.00;;
39982;SDS011;25670;44.782;10.356;2023-04-06T05:01:57;1.45;;;1.23;;
39982;SDS011;25670;44.782;10.356;2023-04-06T05:04:36;1.85;;;1.30;;
39982;SDS011;25670;44.782;10.356;2023-04-06T05:07:05;1.70;;;1.40;;
39982;SDS011;25670;44.782;10.356;2023-04-06T05:09:33;1.67;;;1.33;;
39982;SDS011;25670;44.782;10.356;2023-04-06T05:12:00;3.15;;;1.17;;
39982;SDS011;25670;44.782;10.356;2023-04-06T05:14:29;6.60;;;1.35;;
39982;SDS011;25670;44.782;10.356;2023-04-06T05:16:56;2.00;;;1.13;;
39982;SDS011;25670;44.782;10.356;2023-04-06T05:19:25;7.22;;;1.60;;
39982;SDS011;25670;44.782;10.356;2023-04-06T05:21:51;1.88;;;1.42;;
39982;SDS011;25670;44.782;10.356;2023-04-06T05:24:18;6.38;;;1.30;;
39982;SDS011;25670;44.782;10.356;2023-04-06T05:26:47;2.30;;;1.77;;
39982;SDS011;25670;44.782;10.356;2023-04-06T05:29:20;1.92;;;1.45;;
39982;SDS011;25670;44.782;10.356;2023-04-06T05:31:47;3.83;;;1.90;;
39982;SDS011;25670;44.782;10.356;2023-04-06T05:34:13;3.33;;;1.70;;
39982;SDS011;25670;44.782;10.356;2023-04-06T05:36:41;2.72;;;1.73;;
39982;SDS011;25670;44.782;10.356;2023-04-06T05:39:16;2.60;;;1.85;;
39982;SDS011;25670;44.782;10.356;2023-04-06T05:41:47;2.83;;;1.67;;
39982;SDS011;25670;44.782;10.356;2023-04-06T05:44:17;7.90;;;2.00;;
39982;SDS011;25670;44.782;10.356;2023-04-06T05:46:48;1.65;;;1.50;;
39982;SDS011;25670;44.782;10.356;2023-04-06T05:49:16;3.47;;;1.98;;
39982;SDS011;25670;44.782;10.356;2023-04-06T05:51:43;9.50;;;1.85;;
39982;SDS011;25670;44.782;10.356;2023-04-06T05:54:09;8.05;;;2.25;;
39982;SDS011;25670;44.782;10.356;2023-04-06T05:56:36;2.10;;;1.70;;
39982;SDS011;25670;44.782;10.356;2023-04-06T05:59:05;4.85;;;2.17;;
39982;SDS011;25670;44.782;10.356;2023-04-06T06:01:32;3.53;;;2.40;;
39982;SDS011;25670;44.782;10.356;2023-04-06T06:04:00;7.72;;;1.98;;
39982;SDS011;25670;44.782;10.356;2023-04-06T06:06:29;4.55;;;2.60;;
39982;SDS011;25670;44.782;10.356;2023-04-06T06:09:07;5.13;;;2.03;;
39982;SDS011;25670;44.782;10.356;2023-04-06T06:11:40;3.60;;;2.38;;
39982;SDS011;25670;44.782;10.356;2023-04-06T06:14:08;15.80;;;2.88;;
39982;SDS011;25670;44.782;10.356;2023-04-06T06:16:38;4.20;;;2.30;;
39982;SDS011;25670;44.782;10.356;2023-04-06T06:19:06;11.82;;;2.30;;
39982;SDS011;25670;44.782;10.356;2023-04-06T06:21:33;4.78;;;2.90;;
39982;SDS011;25670;44.782;10.356;2023-04-06T06:24:01;5.93;;;2.85;;
39982;SDS011;25670;44.782;10.356;2023-04-06T06:26:28;13.48;;;2.85;;
39982;SDS011;25670;44.782;10.356;2023-04-06T06:28:54;8.55;;;3.15;;
39982;SDS011;25670;44.782;10.356;2023-04-06T06:31:21;3.13;;;2.35;;
39982;SDS011;25670;44.782;10.356;2023-04-06T06:33:48;3.22;;;2.85;;
39982;SDS011;25670;44.782;10.356;2023-04-06T06:36:17;9.13;;;3.25;;
39982;SDS011;25670;44.782;10.356;2023-04-06T06:38:47;4.55;;;3.05;;
39982;SDS011;25670;44.782;10.356;2023-04-06T06:41:17;11.70;;;3.10;;
39982;SDS011;25670;44.782;10.356;2023-04-06T06:43:43;7.10;;;3.33;;
39982;SDS011;25670;44.782;10.356;2023-04-06T06:46:11;3.25;;;2.92;;
39982;SDS011;25670;44.782;10.356;2023-04-06T06:48:39;4.15;;;3.53;;
39982;SDS011;25670;44.782;10.356;2023-04-06T06:51:06;5.93;;;4.07;;
39982;SDS011;25670;44.782;10.356;2023-04-06T06:53:33;3.58;;;3.28;;
39982;SDS011;25670;44.782;10.356;2023-04-06T06:56:00;9.52;;;3.35;;
39982;SDS011;25670;44.782;10.356;2023-04-06T06:58:30;5.43;;;3.40;;
39982;SDS011;25670;44.782;10.356;2023-04-06T07:00:57;5.88;;;4.45;;
39982;SDS011;25670;44.782;10.356;2023-04-06T07:03:23;8.85;;;3.45;;
39982;SDS011;25670;44.782;10.356;2023-04-06T07:05:50;4.30;;;3.67;;
39982;SDS011;25670;44.782;10.356;2023-04-06T07:08:20;9.20;;;4.05;;
39982;SDS011;25670;44.782;10.356;2023-04-06T07:10:48;7.72;;;3.40;;
39982;SDS011;25670;44.782;10.356;2023-04-06T07:13:15;5.20;;;3.63;;
39982;SDS011;25670;44.782;10.356;2023-04-06T07:15:55;7.55;;;3.75;;
39982;SDS011;25670;44.782;10.356;2023-04-06T07:18:22;8.82;;;3.92;;
39982;SDS011;25670;44.782;10.356;2023-04-06T07:20:49;6.60;;;3.90;;
39982;SDS011;25670;44.782;10.356;2023-04-06T07:23:16;4.50;;;4.10;;
39982;SDS011;25670;44.782;10.356;2023-04-06T07:25:44;5.57;;;3.90;;
39982;SDS011;25670;44.782;10.356;2023-04-06T07:28:11;6.38;;;3.63;;
39982;SDS011;25670;44.782;10.356;2023-04-06T07:30:37;6.85;;;3.63;;
39982;SDS011;25670;44.782;10.356;2023-04-06T07:33:05;14.35;;;3.90;;
39982;SDS011;25670;44.782;10.356;2023-04-06T07:35:33;6.45;;;3.65;;
39982;SDS011;25670;44.782;10.356;2023-04-06T07:38:02;4.78;;;3.95;;
39982;SDS011;25670;44.782;10.356;2023-04-06T07:40:30;9.98;;;4.13;;
39982;SDS011;25670;44.782;10.356;2023-04-06T07:42:58;10.57;;;3.83;;
39982;SDS011;25670;44.782;10.356;2023-04-06T07:45:24;4.82;;;3.90;;
39982;SDS011;25670;44.782;10.356;2023-04-06T07:47:52;4.30;;;3.60;;
39982;SDS011;25670;44.782;10.356;2023-04-06T07:50:19;7.93;;;3.28;;
39982;SDS011;25670;44.782;10.356;2023-04-06T07:52:46;5.75;;;3.42;;
39982;SDS011;25670;44.782;10.356;2023-04-06T07:55:14;7.18;;;3.85;;
39982;SDS011;25670;44.782;10.356;2023-04-06T07:57:41;5.50;;;3.67;;
39982;SDS011;25670;44.782;10.356;2023-04-06T08:00:07;7.32;;;3.97;;
39982;SDS011;25670;44.782;10.356;2023-04-06T08:02:37;8.68;;;3.83;;
39982;SDS011;25670;44.782;10.356;2023-04-06T08:05:04;6.78;;;3.63;;
39982;SDS011;25670;44.782;10.356;2023-04-06T08:07:31;5.78;;;3.17;;
39982;SDS011;25670;44.782;10.356;2023-04-06T08:09:57;4.38;;;3.65;;
39982;SDS011;25670;44.782;10.356;2023-04-06T08:12:24;11.55;;;4.00;;
39982;SDS011;25670;44.782;10.356;2023-04-06T08:14:50;4.30;;;3.75;;
39982;SDS011;25670;44.782;10.356;2023-04-06T08:17:17;10.07;;;3.30;;
39982;SDS011;25670;44.782;10.356;2023-04-06T08:19:43;8.68;;;4.20;;
39982;SDS011;25670;44.782;10.356;2023-04-06T08:22:11;5.78;;;4.15;;
39982;SDS011;25670;44.782;10.356;2023-04-06T08:24:37;4.25;;;3.85;;
39982;SDS011;25670;44.782;10.356;2023-04-06T08:27:04;5.35;;;3.35;;
39982;SDS011;25670;44.782;10.356;2023-04-06T08:29:30;6.75;;;3.45;;
39982;SDS011;25670;44.782;10.356;2023-04-06T08:31:57;4.20;;;3.63;;
39982;SDS011;25670;44.782;10.356;2023-04-06T08:34:23;4.20;;;3.63;;
39982;SDS011;25670;44.782;10.356;2023-04-06T08:36:50;8.68;;;3.65;;
39982;SDS011;25670;44.782;10.356;2023-04-06T08:39:16;3.30;;;2.58;;
39982;SDS011;25670;44.782;10.356;2023-04-06T08:41:49;4.53;;;3.92;;
39982;SDS011;25670;44.782;10.356;2023-04-06T08:44:17;5.07;;;2.58;;
39982;SDS011;25670;44.782;10.356;2023-04-06T08:46:43;5.05;;;3.08;;
39982;SDS011;25670;44.782;10.356;2023-04-06T08:49:10;3.75;;;2.58;;
39982;SDS011;25670;44.782;10.356;2023-04-06T08:51:37;4.30;;;2.90;;
39982;SDS011;25670;44.782;10.356;2023-04-06T08:54:04;4.80;;;2.53;;
39982;SDS011;25670;44.782;10.356;2023-04-06T08:56:30;6.47;;;2.13;;
39982;SDS011;25670;44.782;10.356;2023-04-06T08:59:00;8.35;;;2.85;;
39982;SDS011;25670;44.782;10.356;2023-04-06T09:01:27;2.28;;;2.05;;
39982;SDS011;25670;44.782;10.356;2023-04-06T09:03:58;2.83;;;2.60;;
39982;SDS011;25670;44.782;10.356;2023-04-06T09:06:26;2.13;;;2.00;;
39982;SDS011;25670;44.782;10.356;2023-04-06T09:08:53;3.00;;;2.70;;
39982;SDS011;25670;44.782;10.356;2023-04-06T09:11:20;9.52;;;2.20;;
39982;SDS011;25670;44.782;10.356;2023-04-06T09:13:50;4.07;;;2.58;;
39982;SDS011;25670;44.782;10.356;2023-04-06T09:18:44;2.45;;;2.25;;
39982;SDS011;25670;44.782;10.356;2023-04-06T09:21:11;2.17;;;1.98;;
39982;SDS011;25670;44.782;10.356;2023-04-06T09:23:38;2.95;;;2.20;;
39982;SDS011;25670;44.782;10.356;2023-04-06T09:26:12;1.90;;;1.80;;
39982;SDS011;25670;44.782;10.356;2023-04-06T09:28:46;4.40;;;2.58;;
39982;SDS011;25670;44.782;10.356;2023-04-06T09:31:15;3.45;;;1.90;;
39982;SDS011;25670;44.782;10.356;2023-04-06T09:33:44;1.77;;;1.65;;
39982;SDS011;25670;44.782;10.356;2023-04-06T09:36:11;4.20;;;2.22;;
39982;SDS011;25670;44.782;10.356;2023-04-06T09:38:39;1.88;;;1.67;;
39982;SDS011;25670;44.782;10.356;2023-04-06T09:46:37;2.45;;;1.98;;
39982;SDS011;25670;44.782;10.356;2023-04-06T09:49:05;5.03;;;2.22;;
39982;SDS011;25670;44.782;10.356;2023-04-06T09:51:36;4.85;;;1.85;;
39982;SDS011;25670;44.782;10.356;2023-04-06T09:54:04;6.70;;;2.35;;
39982;SDS011;25670;44.782;10.356;2023-04-06T09:56:33;7.70;;;2.65;;
39982;SDS011;25670;44.782;10.356;2023-04-06T09:59:08;2.65;;;2.40;;
39982;SDS011;25670;44.782;10.356;2023-04-06T10:01:38;2.47;;;2.28;;
39982;SDS011;25670;44.782;10.356;2023-04-06T10:04:12;4.13;;;1.85;;
39982;SDS011;25670;44.782;10.356;2023-04-06T10:06:55;2.10;;;1.90;;
39982;SDS011;25670;44.782;10.356;2023-04-06T10:09:23;2.63;;;2.28;;
39982;SDS011;25670;44.782;10.356;2023-04-06T10:11:54;2.22;;;2.13;;
39982;SDS011;25670;44.782;10.356;2023-04-06T10:14:21;2.65;;;2.45;;
39982;SDS011;25670;44.782;10.356;2023-04-06T10:16:48;4.47;;;2.75;;
39982;SDS011;25670;44.782;10.356;2023-04-06T10:19:16;2.08;;;1.90;;
39982;SDS011;25670;44.782;10.356;2023-04-06T10:21:48;2.60;;;2.40;;
39982;SDS011;25670;44.782;10.356;2023-04-06T10:24:19;5.80;;;2.87;;
39982;SDS011;25670;44.782;10.356;2023-04-06T10:26:58;3.17;;;2.42;;
39982;SDS011;25670;44.782;10.356;2023-04-06T10:29:40;4.20;;;2.58;;
39982;SDS011;25670;44.782;10.356;2023-04-06T10:32:10;3.20;;;2.15;;
39982;SDS011;25670;44.782;10.356;2023-04-06T10:34:37;2.83;;;2.63;;
39982;SDS011;25670;44.782;10.356;2023-04-06T10:37:10;5.03;;;2.25;;
39982;SDS011;25670;44.782;10.356;2023-04-06T10:39:47;3.22;;;2.72;;
39982;SDS011;25670;44.782;10.356;2023-04-06T10:42:24;3.25;;;3.03;;
39982;SDS011;25670;44.782;10.356;2023-04-06T10:45:01;5.10;;;2.60;;
39982;SDS011;25670;44.782;10.356;2023-04-06T10:47:38;7.50;;;2.67;;
39982;SDS011;25670;44.782;10.356;2023-04-06T10:50:06;6.30;;;2.60;;
39982;SDS011;25670;44.782;10.356;2023-04-06T10:52:32;6.90;;;3.55;;
39982;SDS011;25670;44.782;10.356;2023-04-06T10:54:59;5.35;;;2.90;;
39982;SDS011;25670;44.782;10.356;2023-04-06T10:57:29;3.90;;;3.38;;
39982;SDS011;25670;44.782;10.356;2023-04-06T10:59:57;6.15;;;3.80;;
39982;SDS011;25670;44.782;10.356;2023-04-06T11:02:24;3.10;;;2.90;;
39982;SDS011;25670;44.782;10.356;2023-04-06T11:04:57;3.35;;;3.05;;
39982;SDS011;25670;44.782;10.356;2023-04-06T11:07:24;3.55;;;3.25;;
39982;SDS011;25670;44.782;10.356;2023-04-06T11:09:52;3.85;;;3.55;;
39982;SDS011;25670;44.782;10.356;2023-04-06T11:12:25;3.58;;;3.28;;
39982;SDS011;25670;44.782;10.356;2023-04-06T11:15:02;3.60;;;3.40;;
39982;SDS011;25670;44.782;10.356;2023-04-06T11:17:33;7.85;;;3.75;;
39982;SDS011;25670;44.782;10.356;2023-04-06T11:20:01;3.78;;;3.47;;
39982;SDS011;25670;44.782;10.356;2023-04-06T11:22:30;4.47;;;3.50;;
39982;SDS011;25670;44.782;10.356;2023-04-06T11:25:06;5.68;;;4.07;;
39982;SDS011;25670;44.782;10.356;2023-04-06T11:27:33;3.72;;;3.42;;
39982;SDS011;25670;44.782;10.356;2023-04-06T11:30:00;6.60;;;4.38;;
39982;SDS011;25670;44.782;10.356;2023-04-06T11:32:27;12.43;;;3.80;;
39982;SDS011;25670;44.782;10.356;2023-04-06T11:34:54;6.53;;;4.05;;
39982;SDS011;25670;44.782;10.356;2023-04-06T11:37:20;4.50;;;4.07;;
39982;SDS011;25670;44.782;10.356;2023-04-06T11:42:20;3.95;;;3.65;;
39982;SDS011;25670;44.782;10.356;2023-04-06T11:44:54;4.38;;;3.95;;
39982;SDS011;25670;44.782;10.356;2023-04-06T11:47:32;5.35;;;4.03;;
39982;SDS011;25670;44.782;10.356;2023-04-06T11:50:06;7.07;;;4.20;;
39982;SDS011;25670;44.782;10.356;2023-04-06T11:52:35;8.15;;;3.78;;
39982;SDS011;25670;44.782;10.356;2023-04-06T11:55:11;4.50;;;4.10;;
39982;SDS011;25670;44.782;10.356;2023-04-06T11:57:40;4.57;;;3.85;;
39982;SDS011;25670;44.782;10.356;2023-04-06T12:00:07;11.35;;;4.05;;
39982;SDS011;25670;44.782;10.356;2023-04-06T12:02:38;3.97;;;3.50;;
39982;SDS011;25670;44.782;10.356;2023-04-06T12:05:05;4.40;;;4.00;;
39982;SDS011;25670;44.782;10.356;2023-04-06T12:07:32;10.30;;;7.53;;
39982;SDS011;25670;44.782;10.356;2023-04-06T12:10:00;4.95;;;4.55;;
39982;SDS011;25670;44.782;10.356;2023-04-06T12:12:28;8.05;;;4.30;;
39982;SDS011;25670;44.782;10.356;2023-04-06T12:14:55;4.85;;;4.55;;
39982;SDS011;25670;44.782;10.356;2023-04-06T12:17:25;6.35;;;5.00;;
39982;SDS011;25670;44.782;10.356;2023-04-06T12:19:58;4.95;;;4.55;;
39982;SDS011;25670;44.782;10.356;2023-04-06T12:22:33;5.20;;;4.43;;
39982;SDS011;25670;44.782;10.356;2023-04-06T12:25:00;5.40;;;4.78;;
39982;SDS011;25670;44.782;10.356;2023-04-06T12:27:26;4.85;;;4.38;;
39982;SDS011;25670;44.782;10.356;2023-04-06T12:29:53;4.45;;;4.15;;
39982;SDS011;25670;44.782;10.356;2023-04-06T12:32:19;5.40;;;5.10;;
39982;SDS011;25670;44.782;10.356;2023-04-06T12:34:46;5.43;;;4.13;;
39982;SDS011;25670;44.782;10.356;2023-04-06T12:37:12;4.65;;;4.35;;
39982;SDS011;25670;44.782;10.356;2023-04-06T12:39:38;5.28;;;4.88;;
39982;SDS011;25670;44.782;10.356;2023-04-06T12:42:05;6.13;;;4.40;;
39982;SDS011;25670;44.782;10.356;2023-04-06T12:44:31;5.22;;;4.93;;
39982;SDS011;25670;44.782;10.356;2023-04-06T12:46:57;5.65;;;5.28;;
39982;SDS011;25670;44.782;10.356;2023-04-06T12:49:24;5.65;;;5.15;;
39982;SDS011;25670;44.782;10.356;2023-04-06T12:51:50;5.22;;;4.85;;
39982;SDS011;25670;44.782;10.356;2023-04-06T12:54:19;5.78;;;5.38;;
39982;SDS011;25670;44.782;10.356;2023-04-06T12:56:45;5.55;;;5.15;;
39982;SDS011;25670;44.782;10.356;2023-04-06T12:59:11;5.88;;;5.47;;
39982;SDS011;25670;44.782;10.356;2023-04-06T13:01:38;8.98;;;5.25;;
39982;SDS011;25670;44.782;10.356;2023-04-06T13:04:04;5.78;;;5.38;;
39982;SDS011;25670;44.782;10.356;2023-04-06T13:06:30;6.00;;;5.38;;
39982;SDS011;25670;44.782;10.356;2023-04-06T13:08:57;9.98;;;5.03;;
39982;SDS011;25670;44.782;10.356;2023-04-06T13:11:23;6.03;;;5.47;;
39982;SDS011;25670;44.782;10.356;2023-04-06T13:13:51;5.50;;;5.10;;
39982;SDS011;25670;44.782;10.356;2023-04-06T13:16:18;4.88;;;4.47;;
39982;SDS011;25670;44.782;10.356;2023-04-06T13:18:44;5.10;;;4.70;;
39982;SDS011;25670;44.782;10.356;2023-04-06T13:21:13;6.60;;;4.85;;
39982;SDS011;25670;44.782;10.356;2023-04-06T13:23:41;5.30;;;4.82;;
39982;SDS011;25670;44.782;10.356;2023-04-06T13:26:08;5.25;;;4.95;;
39982;SDS011;25670;44.782;10.356;2023-04-06T13:28:35;5.55;;;5.07;;
39982;SDS011;25670;44.782;10.356;2023-04-06T13:31:03;5.50;;;5.15;;
39982;SDS011;25670;44.782;10.356;2023-04-06T13:33:30;6.45;;;4.57;;
39982;SDS011;25670;44.782;10.356;2023-04-06T13:35:57;4.78;;;4.47;;
39982;SDS011;25670;44.782;10.356;2023-04-06T13:38:23;5.00;;;4.70;;
39982;SDS011;25670;44.782;10.356;2023-04-06T13:40:50;5.65;;;5.25;;
39982;SDS011;25670;44.782;10.356;2023-04-06T13:43:17;5.35;;;4.95;;
39982;SDS011;25670;44.782;10.356;2023-04-06T13:45:49;5.40;;;5.10;;
39982;SDS011;25670;44.782;10.356;2023-04-06T13:48:17;5.03;;;4.72;;
39982;SDS011;25670;44.782;10.356;2023-04-06T13:50:43;7.90;;;5.03;;
39982;SDS011;25670;44.782;10.356;2023-04-06T13:53:11;5.55;;;5.18;;
39982;SDS011;25670;44.782;10.356;2023-04-06T13:55:37;4.97;;;4.68;;
39982;SDS011;25670;44.782;10.356;2023-04-06T13:58:04;5.90;;;5.28;;
39982;SDS011;25670;44.782;10.356;2023-04-06T14:00:30;5.80;;;5.43;;
39982;SDS011;25670;44.782;10.356;2023-04-06T14:02:56;5.70;;;5.40;;
39982;SDS011;25670;44.782;10.356;2023-04-06T14:05:22;8.55;;;5.85;;
39982;SDS011;25670;44.782;10.356;2023-04-06T14:07:49;6.00;;;5.60;;
39982;SDS011;25670;44.782;10.356;2023-04-06T14:10:15;5.78;;;5.47;;
39982;SDS011;25670;44.782;10.356;2023-04-06T14:12:42;4.90;;;4.60;;
39982;SDS011;25670;44.782;10.356;2023-04-06T14:15:13;6.45;;;5.85;;
39982;SDS011;25670;44.782;10.356;2023-04-06T14:17:39;5.43;;;5.03;;
39982;SDS011;25670;44.782;10.356;2023-04-06T14:20:06;6.07;;;5.70;;
39982;SDS011;25670;44.782;10.356;2023-04-06T14:22:32;7.05;;;5.57;;
39982;SDS011;25670;44.782;10.356;2023-04-06T14:24:58;6.18;;;5.78;;
39982;SDS011;25670;44.782;10.356;2023-04-06T14:27:25;6.35;;;5.78;;
39982;SDS011;25670;44.782;10.356;2023-04-06T14:29:51;5.22;;;4.93;;
39982;SDS011;25670;44.782;10.356;2023-04-06T14:32:19;5.00;;;4.70;;
39982;SDS011;25670;44.782;10.356;2023-04-06T14:34:46;6.15;;;4.78;;
39982;SDS011;25670;44.782;10.356;2023-04-06T14:37:12;5.50;;;5.10;;
39982;SDS011;25670;44.782;10.356;2023-04-06T14:39:38;5.55;;;5.25;;
39982;SDS011;25670;44.782;10.356;2023-04-06T14:42:04;5.50;;;5.05;;
39982;SDS011;25670;44.782;10.356;2023-04-06T14:44:32;5.47;;;4.90;;
39982;SDS011;25670;44.782;10.356;2023-04-06T14:47:01;4.93;;;4.63;;
39982;SDS011;25670;44.782;10.356;2023-04-06T14:49:29;8.93;;;5.95;;
39982;SDS011;25670;44.782;10.356;2023-04-06T14:51:55;4.97;;;4.68;;